ENY4101 KDCA-KCLE
Flight info
| Callsign | ENY4101 |
|---|---|
| Flight time | N/A |
| Altitude | 26000 |
| Route | HORTO4 JERES J211 JST UPPRR TRYBE4 |
| Aircraft | E75L/M-SDE3GILORVW/S |
Departure
| Time | N/A |
|---|---|
| Airport | Ronald Reagan Washington National Airport (KDCA) |
Arrival
| Time | 2026-05-05 22:43 |
|---|---|
| Airport | Cleveland Hopkins International Airport (KCLE) |
| Time | Latitude | Longitude | Altitude | Speed | Heading |
|---|---|---|---|---|---|
| 2026-05-05 21:56 | 39.08569 | -77.43022 | 18891 ft | 380 kts | 316° |
| 2026-05-05 21:57 | 39.10638 | -77.45172 | 19514 ft | 384 kts | 316° |
| 2026-05-05 21:57 | 39.12739 | -77.47324 | 20196 ft | 388 kts | 318° |
| 2026-05-05 21:57 | 39.14985 | -77.49311 | 20862 ft | 395 kts | 322° |
| 2026-05-05 21:57 | 39.17300 | -77.51252 | 21472 ft | 399 kts | 322° |
| 2026-05-05 21:58 | 39.19632 | -77.53243 | 22048 ft | 403 kts | 321° |
| 2026-05-05 21:58 | 39.21972 | -77.55260 | 22619 ft | 407 kts | 321° |
| 2026-05-05 21:58 | 39.24257 | -77.57242 | 23127 ft | 411 kts | 321° |
| 2026-05-05 21:58 | 39.26620 | -77.59298 | 23632 ft | 415 kts | 321° |
| 2026-05-05 21:59 | 39.28922 | -77.61301 | 24122 ft | 416 kts | 321° |
| 2026-05-05 21:59 | 39.31292 | -77.63366 | 24668 ft | 417 kts | 321° |
| 2026-05-05 21:59 | 39.33568 | -77.65351 | 25165 ft | 417 kts | 321° |
| 2026-05-05 21:59 | 39.35968 | -77.67450 | 25649 ft | 418 kts | 321° |
| 2026-05-05 22:00 | 39.38323 | -77.69511 | 25846 ft | 424 kts | 321° |
| 2026-05-05 22:00 | 39.40695 | -77.71592 | 25857 ft | 429 kts | 321° |
| 2026-05-05 22:00 | 39.43139 | -77.73734 | 25840 ft | 432 kts | 321° |
| 2026-05-05 22:00 | 39.45607 | -77.75899 | 25837 ft | 432 kts | 321° |
| 2026-05-05 22:01 | 39.48098 | -77.78086 | 25842 ft | 433 kts | 321° |
| 2026-05-05 22:01 | 39.50585 | -77.80273 | 25843 ft | 433 kts | 321° |
| 2026-05-05 22:01 | 39.53068 | -77.82458 | 25827 ft | 433 kts | 321° |
| 2026-05-05 22:01 | 39.55562 | -77.84654 | 25831 ft | 433 kts | 321° |
| 2026-05-05 22:02 | 39.58055 | -77.86851 | 25832 ft | 433 kts | 321° |
| 2026-05-05 22:02 | 39.60547 | -77.89049 | 25832 ft | 433 kts | 321° |
| 2026-05-05 22:02 | 39.63034 | -77.91246 | 25830 ft | 431 kts | 321° |
| 2026-05-05 22:02 | 39.65510 | -77.93433 | 25835 ft | 430 kts | 321° |
| 2026-05-05 22:03 | 39.67983 | -77.95621 | 25828 ft | 430 kts | 321° |
| 2026-05-05 22:03 | 39.70467 | -77.97822 | 25815 ft | 432 kts | 321° |
| 2026-05-05 22:03 | 39.72955 | -78.00027 | 25810 ft | 433 kts | 321° |
| 2026-05-05 22:03 | 39.75450 | -78.02240 | 25804 ft | 433 kts | 320° |
| 2026-05-05 22:04 | 39.77906 | -78.04421 | 25804 ft | 433 kts | 320° |
| 2026-05-05 22:04 | 39.80393 | -78.06631 | 25810 ft | 434 kts | 320° |
| 2026-05-05 22:04 | 39.82868 | -78.08854 | 25817 ft | 431 kts | 318° |
| 2026-05-05 22:04 | 39.85032 | -78.11501 | 25818 ft | 424 kts | 307° |
| 2026-05-05 22:05 | 39.86949 | -78.14417 | 25843 ft | 423 kts | 305° |
| 2026-05-05 22:05 | 39.88841 | -78.17345 | 25820 ft | 421 kts | 305° |
| 2026-05-05 22:05 | 39.90735 | -78.20272 | 25811 ft | 422 kts | 305° |
| 2026-05-05 22:05 | 39.92627 | -78.23194 | 25815 ft | 422 kts | 305° |
| 2026-05-05 22:06 | 39.94493 | -78.26088 | 25822 ft | 422 kts | 305° |
| 2026-05-05 22:06 | 39.96379 | -78.29010 | 25822 ft | 422 kts | 305° |
| 2026-05-05 22:06 | 39.98264 | -78.31927 | 25819 ft | 421 kts | 305° |
| 2026-05-05 22:06 | 40.00136 | -78.34818 | 25821 ft | 422 kts | 306° |
| 2026-05-05 22:07 | 40.02024 | -78.37709 | 25818 ft | 422 kts | 306° |
| 2026-05-05 22:07 | 40.03867 | -78.40529 | 25847 ft | 422 kts | 306° |
| 2026-05-05 22:07 | 40.05701 | -78.43342 | 25828 ft | 421 kts | 306° |
| 2026-05-05 22:07 | 40.07540 | -78.46165 | 25836 ft | 422 kts | 306° |
| 2026-05-05 22:08 | 40.09421 | -78.49057 | 25861 ft | 422 kts | 306° |
| 2026-05-05 22:08 | 40.11313 | -78.51966 | 25859 ft | 422 kts | 306° |
| 2026-05-05 22:08 | 40.13205 | -78.54880 | 25861 ft | 422 kts | 306° |
| 2026-05-05 22:08 | 40.15080 | -78.57770 | 25860 ft | 422 kts | 306° |
| 2026-05-05 22:09 | 40.16976 | -78.60698 | 25861 ft | 422 kts | 306° |
| 2026-05-05 22:09 | 40.18872 | -78.63625 | 25851 ft | 420 kts | 305° |
| 2026-05-05 22:09 | 40.20760 | -78.66545 | 25853 ft | 421 kts | 305° |
| 2026-05-05 22:09 | 40.22655 | -78.69477 | 25858 ft | 424 kts | 305° |
| 2026-05-05 22:10 | 40.24563 | -78.72436 | 25851 ft | 423 kts | 305° |
| 2026-05-05 22:10 | 40.26467 | -78.75384 | 25888 ft | 424 kts | 305° |
| 2026-05-05 22:10 | 40.28362 | -78.78327 | 25887 ft | 423 kts | 305° |
| 2026-05-05 22:10 | 40.30263 | -78.81279 | 25888 ft | 423 kts | 305° |
| 2026-05-05 22:11 | 40.32140 | -78.84193 | 25888 ft | 421 kts | 306° |
| 2026-05-05 22:11 | 40.34133 | -78.86976 | 25872 ft | 408 kts | 309° |
| 2026-05-05 22:11 | 40.36080 | -78.89589 | 25875 ft | 402 kts | 308° |
| 2026-05-05 22:11 | 40.38012 | -78.92227 | 25911 ft | 401 kts | 308° |
| 2026-05-05 22:12 | 40.39917 | -78.94837 | 25893 ft | 398 kts | 308° |
| 2026-05-05 22:12 | 40.41829 | -78.97463 | 25873 ft | 398 kts | 308° |
| 2026-05-05 22:12 | 40.43738 | -79.00093 | 25887 ft | 397 kts | 308° |
| 2026-05-05 22:12 | 40.45642 | -79.02721 | 25868 ft | 397 kts | 308° |
| 2026-05-05 22:13 | 40.47546 | -79.05355 | 25857 ft | 398 kts | 308° |
| 2026-05-05 22:13 | 40.49461 | -79.08009 | 25866 ft | 399 kts | 307° |
| 2026-05-05 22:13 | 40.51350 | -79.10623 | 25869 ft | 398 kts | 307° |
| 2026-05-05 22:13 | 40.53238 | -79.13240 | 25866 ft | 398 kts | 307° |
| 2026-05-05 22:14 | 40.55145 | -79.15888 | 25864 ft | 398 kts | 307° |
| 2026-05-05 22:14 | 40.57052 | -79.18539 | 25873 ft | 399 kts | 307° |
| 2026-05-05 22:14 | 40.58944 | -79.21171 | 25868 ft | 398 kts | 307° |
| 2026-05-05 22:14 | 40.60849 | -79.23822 | 25862 ft | 398 kts | 307° |
| 2026-05-05 22:15 | 40.62752 | -79.26471 | 25863 ft | 398 kts | 307° |
| 2026-05-05 22:15 | 40.64632 | -79.29093 | 25852 ft | 399 kts | 307° |
| 2026-05-05 22:15 | 40.66533 | -79.31743 | 25856 ft | 398 kts | 307° |
| 2026-05-05 22:15 | 40.68428 | -79.34392 | 25858 ft | 397 kts | 307° |
| 2026-05-05 22:16 | 40.70332 | -79.37057 | 25851 ft | 398 kts | 307° |
| 2026-05-05 22:16 | 40.72192 | -79.39660 | 25850 ft | 398 kts | 307° |
| 2026-05-05 22:16 | 40.74053 | -79.42265 | 25849 ft | 398 kts | 307° |
| 2026-05-05 22:16 | 40.75947 | -79.44918 | 25840 ft | 396 kts | 307° |
| 2026-05-05 22:17 | 40.77762 | -79.47467 | 25841 ft | 396 kts | 307° |
| 2026-05-05 22:17 | 40.79575 | -79.50013 | 25837 ft | 396 kts | 307° |
| 2026-05-05 22:17 | 40.81464 | -79.52667 | 25839 ft | 396 kts | 307° |
| 2026-05-05 22:17 | 40.83312 | -79.55269 | 25843 ft | 396 kts | 307° |
| 2026-05-05 22:18 | 40.85128 | -79.57859 | 25847 ft | 395 kts | 306° |
| 2026-05-05 22:18 | 40.86872 | -79.60398 | 25833 ft | 395 kts | 306° |
| 2026-05-05 22:18 | 40.88706 | -79.63054 | 25838 ft | 395 kts | 306° |
| 2026-05-05 22:18 | 40.90538 | -79.65658 | 25837 ft | 394 kts | 306° |
| 2026-05-05 22:19 | 40.92410 | -79.68314 | 25840 ft | 395 kts | 306° |
| 2026-05-05 22:19 | 40.94288 | -79.70976 | 25837 ft | 395 kts | 306° |
| 2026-05-05 22:19 | 40.96145 | -79.73608 | 25839 ft | 395 kts | 306° |
| 2026-05-05 22:19 | 40.98019 | -79.76264 | 25848 ft | 395 kts | 306° |
| 2026-05-05 22:20 | 40.99921 | -79.78985 | 25864 ft | 408 kts | 306° |
| 2026-05-05 22:20 | 41.01860 | -79.81751 | 25834 ft | 411 kts | 307° |
| 2026-05-05 22:20 | 41.03817 | -79.84454 | 25856 ft | 416 kts | 308° |
| 2026-05-05 22:20 | 41.05776 | -79.87152 | 25852 ft | 417 kts | 307° |
| 2026-05-05 22:21 | 41.07683 | -79.89965 | 25844 ft | 413 kts | 301° |
| 2026-05-05 22:21 | 41.09128 | -79.93203 | 25867 ft | 406 kts | 291° |
| 2026-05-05 22:21 | 41.10379 | -79.96558 | 25842 ft | 406 kts | 291° |
| 2026-05-05 22:21 | 41.11608 | -79.99824 | 25842 ft | 407 kts | 291° |
| 2026-05-05 22:22 | 41.12835 | -80.03087 | 25845 ft | 407 kts | 291° |
| 2026-05-05 22:22 | 41.14097 | -80.06440 | 25833 ft | 405 kts | 291° |
| 2026-05-05 22:22 | 41.15359 | -80.09801 | 25847 ft | 406 kts | 291° |
| 2026-05-05 22:22 | 41.16617 | -80.13155 | 25772 ft | 407 kts | 291° |
| 2026-05-05 22:23 | 41.17854 | -80.16468 | 25436 ft | 406 kts | 291° |
| 2026-05-05 22:23 | 41.19051 | -80.19679 | 25022 ft | 401 kts | 291° |
| 2026-05-05 22:23 | 41.20282 | -80.22997 | 24460 ft | 398 kts | 291° |
| 2026-05-05 22:23 | 41.21503 | -80.26282 | 23910 ft | 395 kts | 291° |
| 2026-05-05 22:24 | 41.22719 | -80.29558 | 23346 ft | 394 kts | 291° |
| 2026-05-05 22:24 | 41.23924 | -80.32798 | 22842 ft | 389 kts | 291° |
| 2026-05-05 22:24 | 41.25125 | -80.36025 | 22332 ft | 388 kts | 291° |
| 2026-05-05 22:24 | 41.26318 | -80.39234 | 21810 ft | 386 kts | 291° |
| 2026-05-05 22:25 | 41.27502 | -80.42419 | 21286 ft | 383 kts | 291° |
| 2026-05-05 22:25 | 41.28661 | -80.45528 | 20797 ft | 381 kts | 291° |
| 2026-05-05 22:25 | 41.29841 | -80.48673 | 20276 ft | 378 kts | 291° |
| 2026-05-05 22:25 | 41.30993 | -80.51711 | 19798 ft | 376 kts | 291° |
| 2026-05-05 22:26 | 41.32105 | -80.54601 | 19332 ft | 374 kts | 292° |
| 2026-05-05 22:26 | 41.33276 | -80.57677 | 18826 ft | 371 kts | 291° |
| 2026-05-05 22:26 | 41.34423 | -80.60741 | 18338 ft | 369 kts | 291° |
| 2026-05-05 22:26 | 41.35550 | -80.63750 | 17828 ft | 367 kts | 291° |
| 2026-05-05 22:27 | 41.36681 | -80.66775 | 17379 ft | 363 kts | 291° |
| 2026-05-05 22:27 | 41.37803 | -80.69785 | 16893 ft | 361 kts | 291° |
| 2026-05-05 22:27 | 41.38872 | -80.72656 | 16425 ft | 358 kts | 291° |
| 2026-05-05 22:27 | 41.39927 | -80.75493 | 15972 ft | 355 kts | 290° |
| 2026-05-05 22:28 | 41.41002 | -80.78387 | 15511 ft | 352 kts | 290° |
| 2026-05-05 22:28 | 41.42062 | -80.81246 | 15057 ft | 349 kts | 290° |
| 2026-05-05 22:28 | 41.43121 | -80.84099 | 14593 ft | 347 kts | 290° |
| 2026-05-05 22:28 | 41.43821 | -80.85987 | 14290 ft | 345 kts | 290° |
| 2026-05-05 22:29 | 41.44882 | -80.88844 | 13835 ft | 342 kts | 290° |
| 2026-05-05 22:29 | 41.46241 | -80.92509 | 13390 ft | 338 kts | 290° |
| 2026-05-05 22:29 | 41.46917 | -80.94338 | 13090 ft | 341 kts | 290° |
| 2026-05-05 22:29 | 41.47937 | -80.97088 | 12658 ft | 338 kts | 290° |
| 2026-05-05 22:30 | 41.48975 | -80.99889 | 12215 ft | 336 kts | 290° |
| 2026-05-05 22:30 | 41.50007 | -81.02673 | 11773 ft | 334 kts | 290° |
| 2026-05-05 22:30 | 41.51031 | -81.05418 | 11325 ft | 322 kts | 290° |
| 2026-05-05 22:30 | 41.51662 | -81.08148 | 10904 ft | 297 kts | 270° |
| 2026-05-05 22:31 | 41.51649 | -81.10822 | 10537 ft | 281 kts | 262° |
| 2026-05-05 22:31 | 41.51513 | -81.13379 | 10156 ft | 272 kts | 262° |
| 2026-05-05 22:31 | 41.51388 | -81.15849 | 9798 ft | 264 kts | 262° |
| 2026-05-05 22:31 | 41.51264 | -81.18229 | 9450 ft | 255 kts | 262° |
| 2026-05-05 22:32 | 41.51144 | -81.20544 | 9157 ft | 247 kts | 262° |
| 2026-05-05 22:32 | 41.51021 | -81.22820 | 8818 ft | 245 kts | 262° |
| 2026-05-05 22:32 | 41.51281 | -81.25076 | 8505 ft | 257 kts | 288° |
| 2026-05-05 22:32 | 41.52348 | -81.27060 | 8259 ft | 267 kts | 302° |
| 2026-05-05 22:33 | 41.53554 | -81.28962 | 7992 ft | 269 kts | 302° |
| 2026-05-05 22:33 | 41.54735 | -81.30849 | 7705 ft | 269 kts | 302° |
| 2026-05-05 22:33 | 41.55935 | -81.32769 | 7491 ft | 269 kts | 302° |
| 2026-05-05 22:33 | 41.57126 | -81.34688 | 7196 ft | 269 kts | 302° |
| 2026-05-05 22:34 | 41.58315 | -81.36606 | 6932 ft | 265 kts | 302° |
| 2026-05-05 22:34 | 41.59479 | -81.38471 | 6703 ft | 257 kts | 302° |
| 2026-05-05 22:34 | 41.60611 | -81.40275 | 6550 ft | 247 kts | 302° |
| 2026-05-05 22:34 | 41.61610 | -81.42025 | 6477 ft | 224 kts | 288° |
| 2026-05-05 22:35 | 41.61882 | -81.43870 | 6434 ft | 198 kts | 262° |
| 2026-05-05 22:35 | 41.61808 | -81.45641 | 6378 ft | 187 kts | 262° |
| 2026-05-05 22:35 | 41.61751 | -81.47362 | 6159 ft | 189 kts | 262° |
| 2026-05-05 22:35 | 41.61686 | -81.49140 | 5874 ft | 194 kts | 262° |
| 2026-05-05 22:36 | 41.61489 | -81.50912 | 5603 ft | 193 kts | 242° |
| 2026-05-05 22:36 | 41.60749 | -81.52401 | 5358 ft | 193 kts | 235° |
| 2026-05-05 22:36 | 41.59958 | -81.53864 | 5116 ft | 196 kts | 232° |
| 2026-05-05 22:36 | 41.59129 | -81.55246 | 4888 ft | 197 kts | 231° |
| 2026-05-05 22:37 | 41.58295 | -81.56620 | 4625 ft | 197 kts | 231° |
| 2026-05-05 22:37 | 41.57428 | -81.58047 | 4362 ft | 198 kts | 231° |
| 2026-05-05 22:37 | 41.56544 | -81.59475 | 4110 ft | 200 kts | 231° |
| 2026-05-05 22:37 | 41.55681 | -81.60935 | 3863 ft | 201 kts | 233° |
| 2026-05-05 22:38 | 41.54830 | -81.62423 | 3604 ft | 202 kts | 233° |
| 2026-05-05 22:38 | 41.53966 | -81.63919 | 3352 ft | 204 kts | 233° |
| 2026-05-05 22:38 | 41.53092 | -81.65422 | 3110 ft | 206 kts | 234° |
| 2026-05-05 22:38 | 41.52242 | -81.66847 | 3059 ft | 192 kts | 234° |
| 2026-05-05 22:39 | 41.51419 | -81.68120 | 3060 ft | 176 kts | 234° |
| 2026-05-05 22:39 | 41.50641 | -81.69367 | 3003 ft | 173 kts | 236° |
| 2026-05-05 22:39 | 41.49897 | -81.70627 | 3003 ft | 174 kts | 237° |
| 2026-05-05 22:39 | 41.49188 | -81.71914 | 3001 ft | 172 kts | 239° |
| 2026-05-05 22:40 | 41.48526 | -81.73203 | 3010 ft | 170 kts | 242° |
| 2026-05-05 22:40 | 41.47888 | -81.74558 | 2989 ft | 171 kts | 242° |
| 2026-05-05 22:40 | 41.47212 | -81.75890 | 2655 ft | 183 kts | 235° |
| 2026-05-05 22:40 | 41.46397 | -81.77142 | 2362 ft | 168 kts | 234° |
| 2026-05-05 22:41 | 41.45687 | -81.78283 | 2119 ft | 155 kts | 237° |
| 2026-05-05 22:41 | 41.45006 | -81.79387 | 1896 ft | 149 kts | 237° |
| 2026-05-05 22:41 | 41.44354 | -81.80413 | 1710 ft | 144 kts | 234° |
| 2026-05-05 22:41 | 41.43742 | -81.81387 | 1506 ft | 142 kts | 237° |
| 2026-05-05 22:42 | 41.43109 | -81.82390 | 1315 ft | 144 kts | 233° |
| 2026-05-05 22:42 | 41.42458 | -81.83411 | 1086 ft | 142 kts | 233° |
| 2026-05-05 22:42 | 41.41839 | -81.84418 | 903 ft | 140 kts | 234° |
| 2026-05-05 22:42 | 41.41229 | -81.85384 | 788 ft | 128 kts | 233° |
| 2026-05-05 22:43 | 41.40763 | -81.86127 | 789 ft | 66 kts | 229° |
| 2026-05-05 22:43 | 41.40565 | -81.86249 | 787 ft | 13 kts | 155° |
| 2026-05-05 22:43 | 41.40490 | -81.86169 | 787 ft | 15 kts | 139° |
| 2026-05-05 22:43 | 41.40402 | -81.86071 | 786 ft | 18 kts | 140° |
| 2026-05-05 22:44 | 41.40310 | -81.85967 | 787 ft | 14 kts | 138° |
| 2026-05-05 22:44 | 41.40316 | -81.85900 | 787 ft | 8 kts | 51° |
| 2026-05-05 22:44 | 41.40359 | -81.85831 | 787 ft | 11 kts | 50° |
| 2026-05-05 22:44 | 41.40413 | -81.85746 | 788 ft | 13 kts | 50° |
| 2026-05-05 22:45 | 41.40476 | -81.85648 | 786 ft | 15 kts | 50° |
| 2026-05-05 22:45 | 41.40549 | -81.85532 | 785 ft | 18 kts | 49° |
| 2026-05-05 22:45 | 41.40632 | -81.85402 | 785 ft | 19 kts | 51° |
| 2026-05-05 22:45 | 41.40649 | -81.85225 | 785 ft | 20 kts | 93° |
| 2026-05-05 22:46 | 41.40641 | -81.85033 | 785 ft | 22 kts | 93° |
| 2026-05-05 22:46 | 41.40632 | -81.84833 | 785 ft | 21 kts | 93° |
| 2026-05-05 22:46 | 41.40629 | -81.84768 | 785 ft | 20 kts | 93° |
| 2026-05-05 22:46 | 41.40661 | -81.84634 | 785 ft | 13 kts | 51° |
| 2026-05-05 22:47 | 41.40715 | -81.84547 | 785 ft | 11 kts | 50° |
| 2026-05-05 22:47 | 41.40762 | -81.84472 | 785 ft | 10 kts | 50° |
| 2026-05-05 22:47 | 41.40800 | -81.84410 | 785 ft | 8 kts | 51° |
| 2026-05-05 22:47 | 41.40830 | -81.84360 | 785 ft | 6 kts | 52° |
| 2026-05-05 22:48 | 41.40861 | -81.84306 | 785 ft | 9 kts | 53° |
| 2026-05-05 22:48 | 41.40903 | -81.84227 | 785 ft | 12 kts | 54° |
| 2026-05-05 22:48 | 41.40950 | -81.84144 | 785 ft | 10 kts | 59° |
| 2026-05-05 22:48 | 41.40936 | -81.84082 | 785 ft | 6 kts | 141° |
| 2026-05-05 22:49 | 41.40913 | -81.84057 | 785 ft | 0 kts | 141° |